Time;durP1;ratioP1;P1;durP2;ratioP2;P2;SDS_P1;SDS_P2;PMS_P1;PMS_P2;Temp;Humidity;BMP_temperature;BMP_pressure;BME280_temperature;BME280_humidity;BME280_pressure;Samples;Min_cycle;Max_cycle;Signal;HPM_P1;HPM_P2
2022/10/30 00:01:50;;;;;;;3.95;1.00;;;22.20;47.80;;;;;;4055629;29;20056;-49
2022/10/30 00:04:12;;;;;;;6.05;0.88;;;22.30;48.00;;;;;;4055846;29;20040;-45
2022/10/30 00:06:35;;;;;;;3.97;0.68;;;22.30;47.70;;;;;;4055558;29;20044;-49
2022/10/30 00:08:57;;;;;;;3.60;0.60;;;22.30;47.50;;;;;;4053197;29;20492;-47
2022/10/30 00:11:20;;;;;;;4.90;0.57;;;22.30;47.30;;;;;;4056577;29;20051;-47
2022/10/30 00:13:43;;;;;;;1.45;0.77;;;22.30;47.00;;;;;;4056069;29;20058;-48
2022/10/30 00:16:07;;;;;;;3.03;0.80;;;22.30;46.90;;;;;;4057442;29;20134;-50
2022/10/30 00:18:30;;;;;;;2.03;0.70;;;22.30;46.90;;;;;;4056740;29;20074;-49
2022/10/30 00:20:53;;;;;;;2.58;1.05;;;22.30;46.80;;;;;;4057635;29;20056;-45
2022/10/30 00:23:15;;;;;;;3.50;0.70;;;22.30;46.70;;;;;;4056569;29;20122;-47
2022/10/30 00:25:38;;;;;;;3.53;0.60;;;22.30;46.60;;;;;;4054722;29;20055;-46
2022/10/30 00:28:01;;;;;;;2.17;0.70;;;22.30;46.60;;;;;;4055040;29;20068;-48
2022/10/30 00:30:23;;;;;;;1.10;0.40;;;22.30;47.10;;;;;;4057605;29;20470;-47
2022/10/30 00:32:46;;;;;;;1.70;0.73;;;22.40;46.60;;;;;;4057713;29;20099;-48
2022/10/30 00:35:10;;;;;;;1.25;0.63;;;22.30;46.40;;;;;;4048717;29;20057;-46
2022/10/30 00:37:33;;;;;;;2.70;0.63;;;22.40;46.30;;;;;;4055249;29;20036;-49
2022/10/30 00:39:56;;;;;;;1.02;0.60;;;22.40;46.30;;;;;;4057252;29;20044;-45
2022/10/30 00:42:18;;;;;;;0.63;0.40;;;22.40;46.20;;;;;;4047802;29;20592;-44
2022/10/30 00:44:47;;;;;;;1.83;0.80;;;22.40;46.20;;;;;;4047916;29;20058;-44
2022/10/30 00:47:27;;;;;;;2.08;0.63;;;22.40;46.10;;;;;;4050716;29;20052;-44
2022/10/30 00:50:04;;;;;;;0.43;0.43;;;22.40;46.00;;;;;;4056047;29;20364;-48
2022/10/30 00:52:30;;;;;;;1.63;0.60;;;22.50;46.10;;;;;;4047921;29;20169;-43
2022/10/30 00:54:55;;;;;;;1.77;0.65;;;22.50;46.00;;;;;;4055958;29;20044;-51
2022/10/30 00:57:19;;;;;;;1.00;0.57;;;22.50;46.10;;;;;;4050985;29;20099;-48
2022/10/30 00:59:41;;;;;;;0.40;0.40;;;22.40;45.90;;;;;;4055595;29;20492;-45
2022/10/30 01:02:06;;;;;;;0.85;0.47;;;22.50;46.00;;;;;;4056446;29;20086;-45
2022/10/30 01:04:31;;;;;;;0.57;0.52;;;22.50;46.00;;;;;;4058871;29;20044;-47
2022/10/30 01:06:53;;;;;;;1.58;0.90;;;22.50;46.00;;;;;;4056124;29;20047;-46
2022/10/30 01:09:16;;;;;;;0.77;0.40;;;22.50;46.00;;;;;;4054184;29;20040;-45
2022/10/30 01:11:39;;;;;;;0.35;0.35;;;22.60;46.00;;;;;;4049540;29;20056;-45
2022/10/30 01:14:05;;;;;;;0.63;0.63;;;22.60;45.90;;;;;;4050582;29;20032;-47
2022/10/30 01:16:34;;;;;;;0.93;0.70;;;22.60;45.90;;;;;;4058487;29;20044;-48
2022/10/30 01:19:25;;;;;;;1.17;0.50;;;22.60;45.90;;;;;;4052036;29;20044;-52
2022/10/30 01:22:18;;;;;;;0.45;0.40;;;22.60;45.80;;;;;;4053749;29;20579;-44
2022/10/30 01:24:49;;;;;;;1.52;0.52;;;22.60;45.80;;;;;;4055007;29;20040;-46
2022/10/30 01:27:21;;;;;;;0.88;0.70;;;22.60;45.80;;;;;;4055942;29;20047;-49
2022/10/30 01:30:09;;;;;;;1.40;0.50;;;22.70;45.80;;;;;;4054791;29;20047;-51
2022/10/30 01:32:44;;;;;;;0.73;0.50;;;22.70;45.90;;;;;;4056228;29;20095;-53
2022/10/30 01:35:23;;;;;;;1.10;0.70;;;22.70;45.80;;;;;;4052899;29;20036;-50
2022/10/30 01:38:12;;;;;;;0.82;0.50;;;22.70;45.80;;;;;;4054724;29;20503;-48
2022/10/30 01:40:36;;;;;;;0.93;0.47;;;22.80;45.80;;;;;;4057235;29;20114;-50
2022/10/30 01:42:59;;;;;;;0.90;0.55;;;22.70;45.80;;;;;;4056530;29;20040;-48
2022/10/30 01:45:45;;;;;;;0.90;0.60;;;22.80;45.80;;;;;;4054470;29;20082;-48
2022/10/30 01:48:13;;;;;;;1.17;0.57;;;22.80;45.80;;;;;;4057390;29;20495;-51
2022/10/30 01:50:50;;;;;;;0.43;0.43;;;22.80;45.80;;;;;;4056889;29;20036;-48
2022/10/30 01:53:30;;;;;;;0.50;0.50;;;22.80;45.80;;;;;;4059191;29;20126;-47
2022/10/30 01:56:21;;;;;;;0.60;0.55;;;22.80;45.80;;;;;;4061285;29;20231;-46
2022/10/30 01:58:56;;;;;;;0.77;0.47;;;22.90;45.80;;;;;;4057555;29;20114;-45
2022/10/30 02:01:18;;;;;;;0.90;0.60;;;22.90;45.80;;;;;;4056784;29;20451;-45
2022/10/30 02:03:41;;;;;;;0.80;0.57;;;22.90;45.80;;;;;;4058834;29;20516;-52
2022/10/30 02:06:04;;;;;;;0.65;0.57;;;22.90;45.80;;;;;;4058020;29;20036;-46
2022/10/30 02:08:27;;;;;;;0.80;0.53;;;23.00;45.90;;;;;;4058614;29;20864;-48
2022/10/30 02:10:52;;;;;;;0.30;0.30;;;23.00;45.80;;;;;;4056379;29;20043;-50
2022/10/30 02:13:15;;;;;;;1.25;0.70;;;23.00;45.80;;;;;;4049442;29;20044;-46
2022/10/30 02:15:40;;;;;;;1.05;0.70;;;23.00;45.90;;;;;;4055248;29;20051;-49
2022/10/30 02:18:02;;;;;;;1.52;0.80;;;23.00;45.80;;;;;;4056295;29;20040;-48
2022/10/30 02:20:26;;;;;;;1.55;0.60;;;23.10;45.90;;;;;;4047894;29;20492;-51
2022/10/30 02:22:49;;;;;;;0.85;0.60;;;23.10;45.80;;;;;;4060141;29;20044;-48
2022/10/30 02:25:12;;;;;;;0.93;0.70;;;23.10;45.70;;;;;;4054383;29;20055;-47
2022/10/30 02:27:35;;;;;;;1.42;0.70;;;23.10;45.70;;;;;;4051201;29;20591;-49
2022/10/30 02:29:59;;;;;;;1.38;1.00;;;23.10;45.80;;;;;;4059189;29;20044;-47
2022/10/30 02:32:21;;;;;;;3.83;2.47;;;23.20;46.00;;;;;;4058467;29;20040;-45
2022/10/30 02:34:44;;;;;;;3.50;1.88;;;23.20;47.00;;;;;;4054298;29;20477;-48
2022/10/30 02:37:06;;;;;;;4.03;2.20;;;23.20;46.70;;;;;;4059617;29;20040;-49
2022/10/30 02:39:29;;;;;;;4.60;2.40;;;23.20;47.50;;;;;;4054604;29;20116;-51
2022/10/30 02:41:51;;;;;;;6.18;3.42;;;23.30;46.80;;;;;;4059163;29;20051;-52
2022/10/30 02:44:14;;;;;;;4.72;3.13;;;23.30;47.20;;;;;;4057872;29;20048;-51
2022/10/30 02:46:36;;;;;;;5.32;3.63;;;23.30;47.40;;;;;;4057170;29;20048;-52
2022/10/30 02:48:59;;;;;;;5.50;3.08;;;23.30;47.40;;;;;;4059242;29;20451;-47
2022/10/30 02:51:22;;;;;;;4.97;2.83;;;23.40;47.40;;;;;;4059222;29;20056;-48
2022/10/30 02:53:46;;;;;;;5.13;3.00;;;23.40;47.20;;;;;;4053172;29;20036;-52
2022/10/30 02:56:11;;;;;;;5.85;3.15;;;23.40;47.00;;;;;;4058204;29;20416;-51
2022/10/30 02:58:34;;;;;;;7.05;2.80;;;23.50;47.00;;;;;;4055774;29;20103;-51
2022/10/30 03:00:57;;;;;;;4.90;3.00;;;23.50;47.00;;;;;;4058550;29;20086;-50
2022/10/30 03:03:20;;;;;;;3.72;2.40;;;23.50;47.10;;;;;;4056496;29;20127;-50
2022/10/30 03:05:42;;;;;;;4.47;2.53;;;23.60;47.10;;;;;;4054958;29;20457;-50
2022/10/30 03:08:05;;;;;;;9.18;2.72;;;23.60;47.10;;;;;;4053707;29;20043;-53
2022/10/30 03:10:27;;;;;;;4.60;2.22;;;23.60;47.00;;;;;;4053997;29;20052;-55
2022/10/30 03:12:50;;;;;;;3.95;2.20;;;23.70;47.00;;;;;;4058916;29;20051;-49
2022/10/30 03:15:12;;;;;;;2.97;1.92;;;23.70;46.80;;;;;;4057690;29;20053;-53
2022/10/30 03:17:35;;;;;;;3.78;2.05;;;23.70;46.60;;;;;;4054044;29;20036;-50
2022/10/30 03:19:58;;;;;;;5.28;2.53;;;23.80;46.60;;;;;;4054213;29;20052;-48
2022/10/30 03:22:20;;;;;;;5.53;2.10;;;23.80;46.70;;;;;;4058265;29;20044;-48
2022/10/30 03:24:43;;;;;;;3.95;2.20;;;23.80;46.70;;;;;;4057621;29;20050;-48
2022/10/30 03:27:05;;;;;;;3.08;1.73;;;23.90;46.60;;;;;;4055238;29;20050;-45
2022/10/30 03:29:28;;;;;;;2.97;1.90;;;23.90;46.60;;;;;;4057637;29;20103;-46
2022/10/30 03:31:51;;;;;;;4.93;2.07;;;24.00;46.80;;;;;;4053179;29;20036;-51
2022/10/30 03:34:14;;;;;;;5.55;2.08;;;24.00;46.70;;;;;;4055429;29;20119;-49
2022/10/30 03:36:36;;;;;;;4.57;1.80;;;24.00;46.60;;;;;;4058472;29;20067;-44
2022/10/30 03:38:59;;;;;;;4.50;1.50;;;24.00;46.50;;;;;;4056174;29;20292;-45
2022/10/30 03:41:21;;;;;;;4.35;1.85;;;24.10;46.40;;;;;;4057360;29;20543;-50
2022/10/30 03:43:44;;;;;;;2.60;1.50;;;24.10;46.40;;;;;;4057712;29;20575;-47
2022/10/30 03:46:08;;;;;;;3.75;1.65;;;24.20;46.30;;;;;;4057791;29;20548;-49
2022/10/30 03:48:30;;;;;;;;;;;24.20;46.20;;;;;;4058501;29;20059;-47
2022/10/30 03:50:54;;;;;;;3.15;1.70;;;24.20;46.10;;;;;;4054905;29;20286;-50
2022/10/30 03:53:17;;;;;;;3.53;1.67;;;24.30;46.10;;;;;;4054802;29;20052;-46
2022/10/30 03:55:40;;;;;;;4.80;1.30;;;24.30;46.00;;;;;;4057752;29;20557;-46
2022/10/30 03:58:02;;;;;;;3.80;1.80;;;24.30;45.90;;;;;;4053185;29;20055;-50
2022/10/30 04:00:25;;;;;;;4.20;1.65;;;24.30;45.90;;;;;;4055206;29;20056;-47
2022/10/30 04:02:52;;;;;;;3.10;1.50;;;24.40;45.90;;;;;;4054158;29;20040;-46
2022/10/30 04:05:17;;;;;;;1.98;1.00;;;24.40;45.80;;;;;;4049416;29;20054;-46
2022/10/30 04:07:39;;;;;;;3.10;1.20;;;24.40;45.80;;;;;;4056554;29;20061;-49
2022/10/30 04:10:02;;;;;;;2.50;1.02;;;24.40;45.70;;;;;;4056894;29;20103;-50
2022/10/30 04:12:24;;;;;;;2.15;1.30;;;24.50;45.80;;;;;;4056518;29;20047;-49
2022/10/30 04:14:47;;;;;;;2.70;1.50;;;24.50;45.60;;;;;;4057267;29;20470;-49
2022/10/30 04:17:09;;;;;;;2.72;1.38;;;24.50;45.60;;;;;;4054485;29;20051;-50
2022/10/30 04:19:32;;;;;;;2.25;1.30;;;24.50;45.60;;;;;;4057353;29;20044;-48
2022/10/30 04:21:54;;;;;;;2.65;1.38;;;24.60;45.60;;;;;;4053486;29;20078;-54
2022/10/30 04:24:17;;;;;;;2.70;1.27;;;24.60;45.50;;;;;;4058956;29;20127;-49
2022/10/30 04:26:40;;;;;;;3.22;1.42;;;24.60;45.50;;;;;;4050836;29;20428;-49
2022/10/30 04:29:02;;;;;;;4.45;1.50;;;24.60;45.50;;;;;;4057373;29;20179;-50
2022/10/30 04:31:25;;;;;;;1.52;1.02;;;24.70;45.50;;;;;;4057260;29;20873;-50
2022/10/30 04:33:47;;;;;;;2.53;1.40;;;24.70;45.30;;;;;;4056774;29;20658;-47
2022/10/30 04:36:10;;;;;;;2.22;1.08;;;24.80;45.30;;;;;;4054896;29;20070;-49
2022/10/30 04:38:32;;;;;;;1.67;1.02;;;24.80;45.20;;;;;;4052612;29;20273;-46
2022/10/30 04:40:55;;;;;;;2.85;1.33;;;24.90;45.10;;;;;;4056346;29;20147;-49
2022/10/30 04:43:17;;;;;;;2.15;1.08;;;24.90;45.10;;;;;;4054643;29;20044;-50
2022/10/30 04:45:40;;;;;;;2.47;0.95;;;25.00;45.00;;;;;;4058356;29;20477;-51
2022/10/30 04:48:05;;;;;;;2.43;1.07;;;25.00;45.60;;;;;;4051087;29;20083;-52
2022/10/30 04:50:28;;;;;;;3.22;0.90;;;25.00;44.90;;;;;;4054179;29;20050;-50
2022/10/30 04:52:59;;;;;;;2.85;1.10;;;25.00;44.90;;;;;;4056834;29;20067;-49
2022/10/30 04:55:21;;;;;;;1.95;1.08;;;25.10;45.00;;;;;;4057915;29;20063;-52
2022/10/30 04:57:44;;;;;;;2.38;1.10;;;25.10;44.80;;;;;;4053482;29;20104;-52
2022/10/30 05:00:08;;;;;;;2.70;1.05;;;25.20;44.70;;;;;;4052796;29;20044;-48
2022/10/30 05:02:30;;;;;;;2.67;1.15;;;25.20;44.70;;;;;;4054865;29;20155;-49
2022/10/30 05:04:53;;;;;;;0.88;0.68;;;25.30;44.60;;;;;;4055479;29;20032;-49
2022/10/30 05:07:17;;;;;;;1.52;0.85;;;25.30;44.60;;;;;;4055982;29;20043;-45
2022/10/30 05:09:40;;;;;;;2.47;1.00;;;25.40;44.70;;;;;;4059317;29;20051;-47
2022/10/30 05:12:02;;;;;;;0.77;0.70;;;25.40;44.80;;;;;;4060179;29;20067;-53
2022/10/30 05:14:27;;;;;;;3.03;1.00;;;25.40;44.80;;;;;;4058302;29;20127;-49
2022/10/30 05:16:50;;;;;;;2.13;0.95;;;25.40;44.90;;;;;;4060818;29;20044;-48
2022/10/30 05:19:12;;;;;;;1.75;0.95;;;25.40;44.70;;;;;;4060533;29;20040;-50
2022/10/30 05:21:35;;;;;;;2.97;1.38;;;25.40;44.70;;;;;;4059901;29;20079;-51
2022/10/30 05:23:57;;;;;;;2.75;1.20;;;25.40;44.80;;;;;;4061243;29;20036;-53
2022/10/30 05:26:20;;;;;;;1.50;0.93;;;25.40;44.90;;;;;;4060019;29;20048;-50
2022/10/30 05:28:42;;;;;;;1.58;1.05;;;25.40;44.90;;;;;;4059900;29;20040;-50
2022/10/30 05:31:05;;;;;;;1.48;0.95;;;25.40;45.50;;;;;;4060521;29;20046;-52
2022/10/30 05:33:27;;;;;;;4.63;1.40;;;25.50;44.90;;;;;;4058107;29;20782;-49
2022/10/30 05:35:50;;;;;;;1.55;0.98;;;25.50;44.80;;;;;;4058111;29;20099;-51
2022/10/30 05:38:13;;;;;;;2.47;1.05;;;25.50;44.80;;;;;;4052911;29;20511;-53
2022/10/30 05:40:36;;;;;;;2.63;1.45;;;25.60;44.80;;;;;;4059293;29;20536;-50
2022/10/30 05:42:58;;;;;;;2.65;1.45;;;25.60;44.70;;;;;;4058493;29;20055;-54
2022/10/30 05:45:21;;;;;;;3.17;1.58;;;25.70;44.80;;;;;;4058876;29;20039;-50
2022/10/30 05:47:44;;;;;;;3.28;1.58;;;25.70;44.90;;;;;;4060376;29;20103;-53
2022/10/30 05:50:07;;;;;;;3.65;1.58;;;25.60;44.90;;;;;;4054385;29;20051;-53
2022/10/30 05:52:30;;;;;;;5.13;2.00;;;25.60;45.00;;;;;;4059397;29;20060;-45
2022/10/30 05:54:52;;;;;;;3.53;2.20;;;25.60;45.00;;;;;;4056889;29;20032;-49
2022/10/30 05:57:15;;;;;;;4.88;2.05;;;25.60;45.00;;;;;;4060542;29;20044;-53
2022/10/30 05:59:37;;;;;;;3.45;1.63;;;25.60;45.10;;;;;;4056057;29;20040;-49
2022/10/30 06:02:00;;;;;;;3.85;1.98;;;25.60;45.20;;;;;;4052080;29;20149;-49
2022/10/30 06:04:22;;;;;;;4.47;2.28;;;25.60;45.20;;;;;;4055625;29;20051;-49
2022/10/30 06:06:46;;;;;;;3.80;2.00;;;25.60;45.20;;;;;;4054762;29;20072;-46
2022/10/30 06:09:08;;;;;;;5.38;2.33;;;25.60;45.30;;;;;;4059528;29;20048;-51
2022/10/30 06:11:31;;;;;;;4.00;2.33;;;25.60;45.40;;;;;;4057924;29;20044;-52
2022/10/30 06:13:53;;;;;;;4.22;1.75;;;25.70;45.40;;;;;;4057790;29;20043;-48
2022/10/30 06:16:16;;;;;;;3.85;1.73;;;25.70;45.40;;;;;;4054683;29;20036;-53
2022/10/30 06:18:38;;;;;;;4.55;1.88;;;25.70;45.40;;;;;;4049946;29;20799;-46
2022/10/30 06:21:01;;;;;;;2.85;1.67;;;25.70;45.30;;;;;;4058207;29;20056;-48
2022/10/30 06:23:23;;;;;;;3.58;1.65;;;25.80;45.50;;;;;;4056047;29;20074;-49
2022/10/30 06:25:47;;;;;;;2.60;1.63;;;25.80;45.40;;;;;;4060120;29;20127;-52
2022/10/30 06:28:12;;;;;;;5.25;1.67;;;25.80;45.40;;;;;;4057993;29;20052;-50
2022/10/30 06:30:35;;;;;;;4.35;1.75;;;25.90;45.50;;;;;;4059974;29;20166;-47
2022/10/30 06:33:02;;;;;;;2.60;1.08;;;25.90;45.40;;;;;;4059750;29;20271;-53
2022/10/30 06:35:25;;;;;;;2.70;1.38;;;26.00;45.40;;;;;;4059232;29;20576;-49
2022/10/30 06:37:48;;;;;;;3.60;1.50;;;26.00;45.30;;;;;;4068938;29;20350;-51
2022/10/30 06:40:11;;;;;;;2.97;1.38;;;26.00;45.30;;;;;;4057204;29;20056;-53
2022/10/30 06:42:33;;;;;;;7.32;1.88;;;26.00;45.20;;;;;;4060442;29;20425;-49
2022/10/30 06:44:56;;;;;;;2.10;1.20;;;26.00;45.20;;;;;;4055805;29;20138;-52
2022/10/30 06:47:18;;;;;;;2.67;1.20;;;26.00;45.30;;;;;;4058502;29;20047;-50
2022/10/30 06:49:41;;;;;;;2.33;1.20;;;25.90;45.20;;;;;;4059266;29;20032;-46
2022/10/30 06:52:03;;;;;;;1.92;1.02;;;25.90;45.20;;;;;;4060118;29;20091;-52
2022/10/30 06:54:26;;;;;;;3.47;1.48;;;25.90;45.30;;;;;;4048951;29;20044;-50
2022/10/30 06:56:52;;;;;;;3.42;1.45;;;25.90;45.40;;;;;;4056945;29;20099;-52
2022/10/30 06:59:14;;;;;;;5.05;1.88;;;25.90;45.50;;;;;;4058091;29;20525;-51
2022/10/30 07:01:37;;;;;;;2.90;1.00;;;25.80;45.50;;;;;;4059336;29;20134;-54
2022/10/30 07:03:59;;;;;;;2.33;1.23;;;25.80;45.60;;;;;;4058529;29;20047;-50
2022/10/30 07:06:22;;;;;;;3.33;1.50;;;25.80;45.70;;;;;;4060285;29;20484;-49
2022/10/30 07:08:45;;;;;;;3.60;1.40;;;25.70;45.60;;;;;;4055600;29;20083;-48
2022/10/30 07:11:08;;;;;;;3.30;1.23;;;25.70;45.60;;;;;;4058962;29;20437;-52
2022/10/30 07:13:30;;;;;;;3.38;1.35;;;25.70;45.60;;;;;;4050130;29;20354;-53
2022/10/30 07:15:53;;;;;;;3.13;1.30;;;25.70;45.60;;;;;;4059144;29;20380;-50
2022/10/30 07:18:15;;;;;;;2.97;1.33;;;25.70;45.60;;;;;;4056361;29;20401;-48
2022/10/30 07:20:38;;;;;;;3.10;1.30;;;25.70;45.60;;;;;;4055658;29;20464;-49
2022/10/30 07:23:01;;;;;;;3.38;1.40;;;25.60;45.60;;;;;;4056218;29;20091;-50
2022/10/30 07:25:24;;;;;;;2.22;1.20;;;25.60;45.60;;;;;;4059307;29;20046;-48
2022/10/30 07:27:51;;;;;;;2.53;1.17;;;25.60;45.80;;;;;;4053099;29;20588;-48
2022/10/30 07:30:16;;;;;;;2.25;1.20;;;25.50;45.80;;;;;;4054609;29;20567;-49
2022/10/30 07:32:38;;;;;;;5.05;1.40;;;25.50;45.90;;;;;;4059730;29;20055;-53
2022/10/30 07:35:01;;;;;;;2.55;1.20;;;25.50;46.00;;;;;;4053035;29;20126;-52
2022/10/30 07:37:23;;;;;;;3.70;1.73;;;25.50;46.10;;;;;;4053876;29;20048;-51
2022/10/30 07:39:46;;;;;;;2.92;1.40;;;25.40;46.00;;;;;;4058627;29;20032;-51
2022/10/30 07:42:08;;;;;;;3.00;1.35;;;25.40;46.10;;;;;;4057589;29;20090;-51
2022/10/30 07:44:31;;;;;;;4.57;1.55;;;25.40;46.20;;;;;;4056258;29;20051;-49
2022/10/30 07:46:53;;;;;;;2.75;1.10;;;25.40;46.80;;;;;;4054425;29;20047;-45
2022/10/30 07:49:16;;;;;;;3.50;1.27;;;25.40;46.30;;;;;;4056194;29;20063;-47
2022/10/30 07:51:38;;;;;;;2.38;1.00;;;25.40;46.30;;;;;;4055458;29;20139;-47
2022/10/30 07:54:01;;;;;;;3.38;1.48;;;25.40;46.30;;;;;;4051824;29;20048;-49
2022/10/30 07:56:23;;;;;;;3.70;1.42;;;25.30;46.30;;;;;;4056825;29;20050;-49
2022/10/30 07:58:46;;;;;;;3.70;1.30;;;25.30;46.40;;;;;;4058484;29;20036;-52
2022/10/30 08:01:08;;;;;;;2.58;1.00;;;25.20;46.30;;;;;;4056762;29;20114;-51
2022/10/30 08:03:31;;;;;;;3.42;1.15;;;25.20;46.50;;;;;;4055169;29;20075;-47
2022/10/30 08:05:54;;;;;;;3.60;1.48;;;25.20;46.50;;;;;;4050532;29;20044;-52
2022/10/30 08:08:16;;;;;;;3.00;1.13;;;25.20;46.70;;;;;;4049948;29;20096;-45
2022/10/30 08:10:39;;;;;;;2.65;1.40;;;25.10;46.70;;;;;;4049650;29;20040;-49
2022/10/30 08:13:02;;;;;;;2.70;1.40;;;25.10;46.80;;;;;;4044902;29;20036;-47
2022/10/30 08:15:24;;;;;;;2.63;1.27;;;25.10;46.90;;;;;;4051150;29;20075;-49
2022/10/30 08:17:49;;;;;;;2.63;1.10;;;25.10;46.90;;;;;;4048489;29;20047;-46
2022/10/30 08:20:13;;;;;;;3.05;1.05;;;25.10;47.10;;;;;;4045988;29;20501;-50
2022/10/30 08:22:50;;;;;;;1.90;1.08;;;25.10;47.00;;;;;;4053669;29;20044;-51
2022/10/30 08:25:13;;;;;;;4.25;1.73;;;25.00;47.00;;;;;;4047666;29;20486;-50
2022/10/30 08:27:36;;;;;;;2.37;1.03;;;25.00;47.10;;;;;;4050377;29;20399;-48
2022/10/30 08:29:58;;;;;;;3.45;1.08;;;25.00;47.80;;;;;;4052844;29;20771;-46
2022/10/30 08:32:21;;;;;;;3.15;1.30;;;25.00;47.10;;;;;;4053364;29;20106;-49
2022/10/30 08:34:43;;;;;;;3.00;1.20;;;25.00;47.20;;;;;;4053696;29;20542;-49
2022/10/30 08:37:09;;;;;;;2.22;1.10;;;25.00;47.30;;;;;;4054979;29;20412;-48
2022/10/30 08:39:31;;;;;;;3.67;1.50;;;24.90;47.20;;;;;;4052006;29;20110;-48
2022/10/30 08:41:56;;;;;;;2.45;1.10;;;24.90;47.30;;;;;;4049621;29;20052;-50
2022/10/30 08:44:18;;;;;;;3.53;1.50;;;24.90;47.30;;;;;;4051194;29;20044;-49
2022/10/30 08:46:41;;;;;;;2.90;1.30;;;24.90;47.40;;;;;;4050200;29;20039;-52
2022/10/30 08:49:04;;;;;;;1.98;1.20;;;24.90;47.40;;;;;;4054296;29;20046;-49
2022/10/30 08:51:26;;;;;;;2.22;1.10;;;24.80;47.40;;;;;;4052147;29;20424;-51
2022/10/30 08:53:49;;;;;;;2.72;1.20;;;24.80;47.40;;;;;;4051058;29;20425;-47
2022/10/30 08:56:11;;;;;;;2.78;1.27;;;24.80;47.50;;;;;;4049889;29;20567;-50
2022/10/30 08:58:34;;;;;;;2.15;1.00;;;24.80;47.60;;;;;;4058389;29;20044;-52
2022/10/30 09:00:57;;;;;;;3.03;1.10;;;24.80;47.60;;;;;;4057355;29;20531;-46
2022/10/30 09:03:19;;;;;;;1.60;1.00;;;24.80;47.60;;;;;;4056966;29;20052;-52
2022/10/30 09:05:42;;;;;;;2.42;1.27;;;24.80;47.70;;;;;;4054897;29;20047;-53
2022/10/30 09:08:05;;;;;;;2.38;1.20;;;24.80;47.70;;;;;;4058110;29;20419;-49
2022/10/30 09:10:28;;;;;;;2.95;1.35;;;24.80;47.80;;;;;;4055144;29;20368;-49
2022/10/30 09:12:54;;;;;;;1.52;0.88;;;24.80;47.80;;;;;;4058736;29;20500;-53
2022/10/30 09:15:17;;;;;;;1.90;0.90;;;24.80;47.90;;;;;;4054666;29;20048;-53
2022/10/30 09:17:40;;;;;;;2.08;1.00;;;24.70;48.00;;;;;;4058751;29;20036;-50
2022/10/30 09:20:03;;;;;;;2.13;1.23;;;24.70;48.00;;;;;;4051957;29;20441;-46
2022/10/30 09:22:25;;;;;;;3.23;1.30;;;24.70;48.10;;;;;;4049710;29;20417;-53
2022/10/30 09:24:48;;;;;;;3.80;1.20;;;24.70;48.10;;;;;;4058193;29;20172;-49
2022/10/30 09:27:10;;;;;;;1.90;0.90;;;24.70;48.10;;;;;;4058384;29;20139;-52
2022/10/30 09:29:34;;;;;;;2.15;1.00;;;24.70;48.30;;;;;;4056505;29;20163;-45
2022/10/30 09:31:57;;;;;;;2.65;1.30;;;24.70;48.30;;;;;;4057857;29;20127;-48
2022/10/30 09:34:20;;;;;;;4.05;1.25;;;24.70;48.40;;;;;;4049793;29;20036;-48
2022/10/30 09:36:46;;;;;;;1.80;1.00;;;24.60;48.40;;;;;;4055136;29;20100;-51
2022/10/30 09:39:09;;;;;;;2.88;1.40;;;24.60;48.50;;;;;;4055520;29;20047;-50
2022/10/30 09:41:46;;;;;;;2.10;1.20;;;24.60;48.50;;;;;;4058195;29;20048;-52
2022/10/30 09:44:38;;;;;;;1.55;1.00;;;24.60;48.50;;;;;;4053229;29;20457;-52
2022/10/30 09:47:36;;;;;;;1.65;1.20;;;24.60;48.70;;;;;;4052352;29;20047;-49
2022/10/30 09:50:06;;;;;;;2.60;1.15;;;24.60;48.70;;;;;;4059527;29;20475;-50
2022/10/30 09:52:51;;;;;;;3.35;1.30;;;24.60;48.80;;;;;;4051832;29;20071;-47
2022/10/30 09:55:17;;;;;;;2.60;1.13;;;24.60;48.80;;;;;;4061488;29;20575;-50
2022/10/30 09:57:45;;;;;;;3.42;1.38;;;24.50;48.90;;;;;;4061425;29;20044;-51
2022/10/30 10:00:09;;;;;;;1.95;0.93;;;24.50;48.90;;;;;;4053555;29;20480;-53
2022/10/30 10:02:36;;;;;;;1.67;1.23;;;24.50;49.00;;;;;;4054109;29;20481;-50
2022/10/30 10:05:21;;;;;;;2.03;1.13;;;24.50;49.00;;;;;;4059482;29;20040;-54
2022/10/30 10:07:50;;;;;;;1.40;0.95;;;24.50;49.10;;;;;;4059781;29;20464;-50
2022/10/30 10:10:40;;;;;;;5.53;1.35;;;24.50;49.00;;;;;;4059330;29;20428;-49
2022/10/30 10:13:04;;;;;;;2.85;1.38;;;24.50;49.20;;;;;;4058232;29;20050;-49
2022/10/30 10:16:00;;;;;;;2.50;1.30;;;24.40;49.10;;;;;;4056674;29;20492;-53
2022/10/30 10:18:37;;;;;;;2.72;1.42;;;24.40;49.20;;;;;;4061121;29;20071;-50
2022/10/30 10:21:36;;;;;;;2.92;1.00;;;24.40;49.20;;;;;;4061899;29;20523;-48
2022/10/30 10:24:12;;;;;;;3.83;1.10;;;24.40;49.30;;;;;;4032942;29;20098;-48
2022/10/30 10:26:49;;;;;;;3.20;1.00;;;24.40;49.30;;;;;;4057459;29;20044;-51
2022/10/30 10:29:48;;;;;;;2.15;1.10;;;24.40;49.30;;;;;;4055104;29;20118;-45
2022/10/30 10:32:37;;;;;;;2.22;0.98;;;24.40;49.30;;;;;;4059399;29;20036;-52
2022/10/30 10:35:18;;;;;;;3.30;1.20;;;24.30;49.30;;;;;;4059404;29;20417;-52
2022/10/30 10:37:43;;;;;;;2.05;1.08;;;24.30;49.40;;;;;;4058598;29;20064;-51
2022/10/30 10:40:45;;;;;;;1.38;0.80;;;24.30;49.40;;;;;;4057886;29;20051;-49
2022/10/30 10:43:11;;;;;;;2.55;1.02;;;24.30;49.50;;;;;;4056510;29;20055;-51
2022/10/30 10:45:42;;;;;;;3.38;1.38;;;24.30;49.50;;;;;;4060584;29;20047;-50
2022/10/30 10:48:20;;;;;;;5.22;1.23;;;24.30;49.60;;;;;;4055854;29;20044;-48
2022/10/30 10:50:56;;;;;;;2.63;1.02;;;24.30;49.60;;;;;;4058032;29;20042;-52
2022/10/30 10:53:48;;;;;;;2.55;1.20;;;24.30;49.60;;;;;;4059778;29;20492;-51
2022/10/30 10:56:12;;;;;;;1.73;0.77;;;24.20;49.60;;;;;;4047017;29;20631;-50
2022/10/30 10:58:48;;;;;;;4.18;1.42;;;24.20;49.60;;;;;;4055736;29;20416;-49
2022/10/30 11:01:39;;;;;;;2.67;1.15;;;24.20;49.70;;;;;;4054399;29;20084;-52
2022/10/30 11:04:31;;;;;;;2.00;0.90;;;24.20;49.70;;;;;;4060170;29;20160;-50
2022/10/30 11:06:55;;;;;;;2.78;1.10;;;24.20;49.80;;;;;;4060515;29;20128;-50
2022/10/30 11:09:18;;;;;;;;;;;24.20;49.80;;;;;;4052607;29;20136;-51
2022/10/30 11:11:42;;;;;;;2.83;1.33;;;24.20;49.80;;;;;;4059852;29;19922;-53
2022/10/30 11:14:33;;;;;;;1.38;0.95;;;24.20;49.90;;;;;;4060464;29;20130;-51
2022/10/30 11:17:13;;;;;;;2.05;1.10;;;24.10;49.80;;;;;;4053254;29;20051;-54
2022/10/30 11:19:36;;;;;;;2.95;1.20;;;24.10;49.90;;;;;;4052894;29;20048;-54
2022/10/30 11:22:00;;;;;;;2.33;1.20;;;24.10;49.90;;;;;;4058152;29;20055;-51
2022/10/30 11:24:29;;;;;;;2.63;1.20;;;24.10;49.90;;;;;;4060527;29;20068;-49
2022/10/30 11:26:53;;;;;;;2.25;1.25;;;24.10;49.90;;;;;;4055171;29;20559;-51
2022/10/30 11:29:23;;;;;;;3.00;1.00;;;24.10;50.00;;;;;;4052258;29;20044;-54
2022/10/30 11:31:46;;;;;;;1.77;1.00;;;24.10;50.00;;;;;;4056543;29;20118;-50
2022/10/30 11:34:19;;;;;;;1.77;1.10;;;24.10;50.10;;;;;;4059803;29;20036;-52
2022/10/30 11:36:41;;;;;;;3.83;1.23;;;24.00;50.00;;;;;;4053590;29;20543;-50
2022/10/30 11:39:10;;;;;;;2.47;0.95;;;24.00;50.10;;;;;;4051758;29;20420;-47
2022/10/30 11:41:33;;;;;;;2.30;1.05;;;24.00;50.10;;;;;;4057499;29;20075;-46
2022/10/30 11:43:56;;;;;;;2.50;1.20;;;24.00;50.10;;;;;;4057838;29;20067;-53
2022/10/30 11:46:23;;;;;;;1.83;0.83;;;24.00;50.70;;;;;;4059350;29;20488;-48
2022/10/30 11:48:53;;;;;;;2.10;1.08;;;24.00;50.10;;;;;;4057756;29;20137;-49
2022/10/30 11:51:36;;;;;;;1.63;1.00;;;24.00;50.10;;;;;;4057299;29;20653;-47
2022/10/30 11:53:59;;;;;;;3.53;1.20;;;24.00;50.20;;;;;;4057358;29;20500;-51
2022/10/30 11:56:23;;;;;;;2.53;1.10;;;24.00;50.20;;;;;;4055336;29;20039;-51
2022/10/30 11:58:52;;;;;;;3.25;1.17;;;24.00;50.30;;;;;;4059146;29;20032;-52
2022/10/30 12:01:27;;;;;;;2.28;1.10;;;23.90;50.20;;;;;;4049616;29;20048;-49
2022/10/30 12:03:50;;;;;;;1.77;1.00;;;23.90;50.20;;;;;;4057465;29;20040;-53
2022/10/30 12:06:24;;;;;;;2.17;0.80;;;23.90;50.20;;;;;;4051875;29;20507;-53
2022/10/30 12:09:12;;;;;;;2.15;1.15;;;23.90;50.20;;;;;;4056211;29;20033;-52
2022/10/30 12:11:36;;;;;;;1.67;0.93;;;23.90;50.30;;;;;;4059122;29;20058;-49
2022/10/30 12:14:00;;;;;;;3.30;1.23;;;23.90;51.00;;;;;;4056183;29;20083;-52
2022/10/30 12:16:23;;;;;;;2.92;0.98;;;23.80;50.30;;;;;;4055362;29;20060;-48
2022/10/30 12:19:15;;;;;;;1.83;0.90;;;23.80;50.40;;;;;;4058132;29;20101;-52
2022/10/30 12:21:44;;;;;;;2.55;0.90;;;23.80;50.30;;;;;;4054114;29;20056;-53
2022/10/30 12:24:16;;;;;;;1.17;0.60;;;23.80;50.40;;;;;;4051607;29;20036;-54
2022/10/30 12:26:40;;;;;;;2.63;1.00;;;23.80;50.40;;;;;;4058698;29;20211;-48
2022/10/30 12:29:14;;;;;;;2.15;0.88;;;23.80;50.40;;;;;;4053337;29;20048;-49
2022/10/30 12:32:04;;;;;;;2.80;1.02;;;23.80;50.50;;;;;;4049620;29;20496;-48
2022/10/30 12:34:58;;;;;;;1.60;0.70;;;23.80;50.50;;;;;;4057541;29;20070;-59
2022/10/30 12:37:34;;;;;;;3.47;1.00;;;23.80;50.60;;;;;;4051565;29;20038;-50
2022/10/30 12:40:10;;;;;;;6.85;1.52;;;23.70;50.70;;;;;;4053488;29;20051;-51
2022/10/30 12:42:39;;;;;;;4.57;1.10;;;23.80;51.10;;;;;;4055494;29;20117;-52
2022/10/30 12:45:22;;;;;;;6.95;1.40;;;23.80;51.20;;;;;;4056603;29;20036;-51